Time;durP1;ratioP1;P1;durP2;ratioP2;P2;SDS_P1;SDS_P2;PMS_P1;PMS_P2;Temp;Humidity;BMP_temperature;BMP_pressure;BME280_temperature;BME280_humidity;BME280_pressure;Samples;Min_cycle;Max_cycle;Signal;HPM_P1;HPM_P2
2023/10/24 00:03:21;;;;;;;;;;;;;;;17.77;59.35;98482.72;10331283;28;986;-71
2023/10/24 00:08:17;;;;;;;;;;;;;;;17.76;59.34;98484.50;10330928;28;853;-72
2023/10/24 00:13:13;;;;;;;;;;;;;;;17.74;59.20;98481.13;10330130;28;906;-71
2023/10/24 00:18:13;;;;;;;;;;;;;;;17.73;59.33;98479.44;10329782;28;1898;-72
2023/10/24 00:23:09;;;;;;;;;;;;;;;17.74;59.38;98481.13;10329528;28;1227;-71
2023/10/24 00:28:04;;;;;;;;;;;;;;;17.73;59.36;98489.97;10329317;28;810;-72
2023/10/24 00:33:00;;;;;;;;;;;;;;;17.70;59.33;98491.00;10330115;28;861;-72
2023/10/24 00:37:56;;;;;;;;;;;;;;;17.70;59.40;98483.09;10328473;28;1894;-72
2023/10/24 00:42:52;;;;;;;;;;;;;;;17.69;59.33;98496.38;10329021;28;811;-72
2023/10/24 00:47:48;;;;;;;;;;;;;;;17.68;59.37;98486.78;10328094;28;922;-71
2023/10/24 00:52:45;;;;;;;;;;;;;;;17.68;59.58;98489.41;10328542;28;1309;-71
2023/10/24 00:57:41;;;;;;;;;;;;;;;17.66;59.49;98483.41;10327666;28;1972;-71
2023/10/24 01:02:37;;;;;;;;;;;;;;;17.66;59.38;98484.25;10328805;28;818;-71
2023/10/24 01:07:33;;;;;;;;;;;;;;;17.64;59.49;98475.59;10328529;28;869;-72
2023/10/24 01:12:29;;;;;;;;;;;;;;;17.64;59.37;98464.22;10328602;28;913;-71
2023/10/24 01:17:25;;;;;;;;;;;;;;;17.63;59.32;98478.31;10327746;28;1893;-72
2023/10/24 01:22:21;;;;;;;;;;;;;;;17.63;59.48;98489.72;10327368;28;773;-71
2023/10/24 01:27:17;;;;;;;;;;;;;;;17.62;59.31;98485.38;10327996;28;802;-72
2023/10/24 01:32:12;;;;;;;;;;;;;;;17.61;59.52;98488.13;10327005;28;867;-72
2023/10/24 01:37:09;;;;;;;;;;;;;;;17.60;59.43;98467.97;10326114;28;1890;-72
2023/10/24 01:42:05;;;;;;;;;;;;;;;17.60;59.49;98466.16;10327297;28;900;-72
2023/10/24 01:47:01;;;;;;;;;;;;;;;17.59;59.35;98464.50;10325750;28;878;-72
2023/10/24 01:51:57;;;;;;;;;;;;;;;17.58;59.43;98461.94;10326714;28;1085;-72
2023/10/24 01:56:53;;;;;;;;;;;;;;;17.57;59.36;98479.53;10326759;28;1901;-72
2023/10/24 02:01:49;;;;;;;;;;;;;;;17.56;59.31;98467.31;10326082;28;944;-72
2023/10/24 02:06:45;;;;;;;;;;;;;;;17.57;59.52;98476.06;10325940;28;905;-72
2023/10/24 02:11:41;;;;;;;;;;;;;;;17.56;59.21;98475.22;10325753;28;963;-72
2023/10/24 02:16:37;;;;;;;;;;;;;;;17.55;59.51;98454.22;10326250;28;1886;-72
2023/10/24 02:21:33;;;;;;;;;;;;;;;17.54;59.40;98463.94;10325678;28;934;-72
2023/10/24 02:26:28;;;;;;;;;;;;;;;17.53;59.56;98463.09;10325465;28;858;-72
2023/10/24 02:31:24;;;;;;;;;;;;;;;17.52;59.35;98471.09;10326082;28;787;-72
2023/10/24 02:36:20;;;;;;;;;;;;;;;17.51;59.49;98479.94;10326159;28;1910;-71
2023/10/24 02:41:16;;;;;;;;;;;;;;;17.50;59.56;98465.06;10326509;28;892;-72
2023/10/24 02:46:12;;;;;;;;;;;;;;;17.50;59.40;98463.28;10325091;28;913;-72
2023/10/24 02:51:08;;;;;;;;;;;;;;;17.50;59.40;98478.22;10315589;28;1154;-72
2023/10/24 02:56:04;;;;;;;;;;;;;;;17.49;59.34;98481.81;10333102;28;1910;-72
2023/10/24 03:01:00;;;;;;;;;;;;;;;17.49;59.48;98501.09;10332949;28;946;-72
2023/10/24 03:05:56;;;;;;;;;;;;;;;17.49;59.27;98481.81;10333075;28;1014;-72
2023/10/24 03:10:51;;;;;;;;;;;;;;;17.47;59.42;98483.69;10332582;28;896;-72
2023/10/24 03:15:47;;;;;;;;;;;;;;;17.46;59.31;98480.22;10333297;28;1913;-72
2023/10/24 03:20:43;;;;;;;;;;;;;;;17.47;59.32;98483.69;10331430;28;953;-72
2023/10/24 03:25:39;;;;;;;;;;;;;;;17.45;59.33;98475.91;10331907;28;977;-72
2023/10/24 03:30:35;;;;;;;;;;;;;;;17.46;59.44;98487.28;10332346;28;865;-72
2023/10/24 03:35:31;;;;;;;;;;;;;;;17.44;59.34;98484.72;10331497;28;1898;-72
2023/10/24 03:40:27;;;;;;;;;;;;;;;17.43;59.54;98504.13;10332313;28;862;-71
2023/10/24 03:45:23;;;;;;;;;;;;;;;17.43;59.48;98488.31;10331242;28;831;-71
2023/10/24 03:50:19;;;;;;;;;;;;;;;17.42;59.35;98491.03;10331018;28;1371;-71
2023/10/24 03:55:15;;;;;;;;;;;;;;;17.42;59.42;98485.75;10330787;28;1914;-72
2023/10/24 04:00:12;;;;;;;;;;;;;;;17.41;59.42;98491.97;10329459;28;939;-71
2023/10/24 04:05:08;;;;;;;;;;;;;;;17.41;59.22;98473.53;10330483;28;1160;-72
2023/10/24 04:10:04;;;;;;;;;;;;;;;17.40;59.36;98482.41;10329845;28;955;-71
2023/10/24 04:15:00;;;;;;;;;;;;;;;17.38;59.17;98474.56;10330847;28;1894;-72
2023/10/24 04:19:56;;;;;;;;;;;;;;;17.42;59.04;98481.38;10329886;28;767;-72
2023/10/24 04:24:52;;;;;;;;;;;;;;;17.45;58.89;98478.53;10329762;28;806;-72
2023/10/24 04:29:47;;;;;;;;;;;;;;;17.46;59.14;98472.31;10330159;28;798;-72
2023/10/24 04:34:44;;;;;;;;;;;;;;;17.49;59.02;98463.38;10328731;28;1960;-72
2023/10/24 04:39:40;;;;;;;;;;;;;;;17.54;58.75;98466.56;10329200;28;807;-72
2023/10/24 04:44:36;;;;;;;;;;;;;;;17.55;58.70;98464.78;10328481;28;951;-72
2023/10/24 04:49:32;;;;;;;;;;;;;;;17.60;58.62;98468.81;10328627;28;1065;-72
2023/10/24 04:54:28;;;;;;;;;;;;;;;17.62;58.49;98466.09;10328524;28;1910;-73
2023/10/24 04:59:24;;;;;;;;;;;;;;;17.66;58.45;98462.34;10328441;28;979;-74
2023/10/24 05:04:20;;;;;;;;;;;;;;;17.69;58.48;98473.50;10327789;28;889;-72
2023/10/24 05:09:16;;;;;;;;;;;;;;;17.72;58.38;98462.78;10328111;28;867;-74
2023/10/24 05:14:12;;;;;;;;;;;;;;;17.77;58.09;98456.38;10327253;28;1890;-74
2023/10/24 05:19:08;;;;;;;;;;;;;;;17.81;58.13;98455.25;10324782;28;1019;-75
2023/10/24 05:24:03;;;;;;;;;;;;;;;17.82;58.08;98447.25;10326879;28;902;-73
2023/10/24 05:28:59;;;;;;;;;;;;;;;17.85;57.89;98449.69;10326394;28;882;-72
2023/10/24 05:34:15;;;;;;;;;;;;;;;17.88;57.99;98435.47;10381036;27;1368;-75
2023/10/24 05:39:11;;;;;;;;;;;;;;;17.88;57.76;98431.03;10360426;28;931;-75
2023/10/24 05:44:07;;;;;;;;;;;;;;;17.90;57.98;98444.97;10360400;28;849;-74
2023/10/24 05:49:02;;;;;;;;;;;;;;;17.93;57.86;98472.94;10359871;28;963;-74
2023/10/24 05:53:58;;;;;;;;;;;;;;;17.93;57.98;98465.88;10360549;28;878;-73
2023/10/24 05:58:54;;;;;;;;;;;;;;;17.94;57.74;98458.78;10359529;28;882;-73
2023/10/24 06:03:50;;;;;;;;;;;;;;;17.93;57.88;98446.56;10360184;28;1167;-73
2023/10/24 06:08:46;;;;;;;;;;;;;;;17.91;57.74;98448.44;10359305;28;875;-72
2023/10/24 06:13:42;;;;;;;;;;;;;;;17.91;57.89;98445.81;10360261;28;1961;-74
2023/10/24 06:18:38;;;;;;;;;;;;;;;17.87;58.20;98445.19;10359437;28;846;-74
2023/10/24 06:23:34;;;;;;;;;;;;;;;17.84;58.06;98445.38;10359198;28;1020;-74
2023/10/24 06:28:29;;;;;;;;;;;;;;;17.85;58.02;98436.50;10358053;28;911;-73
2023/10/24 06:33:26;;;;;;;;;;;;;;;17.85;58.04;98448.84;10357913;28;1963;-73
2023/10/24 06:38:22;;;;;;;;;;;;;;;17.86;57.65;98434.72;10358452;28;879;-73
2023/10/24 06:43:18;;;;;;;;;;;;;;;17.88;57.69;98441.59;10343684;28;884;-73
2023/10/24 06:48:14;;;;;;;;;;;;;;;17.91;57.80;98432.63;10330160;28;937;-74
2023/10/24 06:53:09;;;;;;;;;;;;;;;17.91;57.70;98449.28;10336269;28;1913;-73
2023/10/24 06:58:05;;;;;;;;;;;;;;;17.91;57.73;98444.03;10364268;28;891;-73
2023/10/24 07:03:01;;;;;;;;;;;;;;;17.93;57.74;98451.84;10329409;28;915;-73
2023/10/24 07:07:58;;;;;;;;;;;;;;;17.96;57.64;98460.38;10329622;28;885;-74
2023/10/24 07:12:54;;;;;;;;;;;;;;;17.96;57.79;98455.13;10330253;28;1981;-73
2023/10/24 07:17:50;;;;;;;;;;;;;;;17.96;57.57;98462.19;10328500;28;761;-73
2023/10/24 07:22:46;;;;;;;;;;;;;;;17.99;57.56;98464.63;10329523;28;888;-72
2023/10/24 07:27:41;;;;;;;;;;;;;;;18.16;57.35;98451.19;10329516;28;943;-72
2023/10/24 07:32:37;;;;;;;;;;;;;;;18.20;58.00;98462.38;10328578;28;1991;-72
2023/10/24 07:37:35;;;;;;;;;;;;;;;18.26;58.09;98471.69;10329077;28;925;-71
2023/10/24 07:42:32;;;;;;;;;;;;;;;18.29;58.15;98455.69;10329494;28;898;-71
2023/10/24 07:47:28;;;;;;;;;;;;;;;18.31;58.13;98459.91;10328665;28;810;-73
2023/10/24 07:52:24;;;;;;;;;;;;;;;18.31;58.27;98453.75;10329042;28;1906;-72
2023/10/24 07:57:20;;;;;;;;;;;;;;;18.36;58.31;98451.66;10328162;28;852;-72
2023/10/24 08:02:15;;;;;;;;;;;;;;;18.36;58.29;98449.88;10328297;28;806;-72
2023/10/24 08:07:11;;;;;;;;;;;;;;;18.38;58.36;98466.44;10327831;28;913;-72
2023/10/24 08:12:08;;;;;;;;;;;;;;;18.39;58.46;98473.44;10327864;28;1902;-73
2023/10/24 08:17:04;;;;;;;;;;;;;;;18.40;58.27;98469.00;10327999;28;806;-72
2023/10/24 08:22:00;;;;;;;;;;;;;;;18.43;58.67;98478.50;10327240;28;918;-72
2023/10/24 08:26:56;;;;;;;;;;;;;;;18.43;58.89;98499.59;10327060;28;866;-72
2023/10/24 08:31:52;;;;;;;;;;;;;;;18.42;58.68;98508.44;10327175;28;1913;-73
2023/10/24 08:36:48;;;;;;;;;;;;;;;18.39;58.93;98520.91;10326417;28;965;-72
2023/10/24 08:41:43;;;;;;;;;;;;;;;18.43;58.72;98518.06;10327057;28;778;-72
2023/10/24 08:46:39;;;;;;;;;;;;;;;18.42;58.67;98519.88;10325774;28;1043;-72
2023/10/24 08:51:35;;;;;;;;;;;;;;;18.43;58.69;98513.63;10326036;28;1894;-72
2023/10/24 08:56:33;;;;;;;;;;;;;;;18.42;58.83;98497.91;10325478;28;940;-71
2023/10/24 09:01:29;;;;;;;;;;;;;;;18.45;58.73;98516.19;10326592;28;905;-71
2023/10/24 09:06:25;;;;;;;;;;;;;;;18.44;58.76;98517.94;10326912;28;920;-72
2023/10/24 09:11:20;;;;;;;;;;;;;;;18.45;58.81;98508.28;10325713;28;1902;-72
2023/10/24 09:16:16;;;;;;;;;;;;;;;18.44;58.86;98494.22;10324379;28;762;-72
2023/10/24 09:21:12;;;;;;;;;;;;;;;18.47;58.85;98493.16;10325947;28;793;-72
2023/10/24 09:26:10;;;;;;;;;;;;;;;18.50;58.71;98485.91;10325409;28;873;-69
2023/10/24 09:31:07;;;;;;;;;;;;;;;18.49;58.57;98480.72;10325897;28;1973;-72
2023/10/24 09:36:03;;;;;;;;;;;;;;;18.49;58.74;98486.00;10339771;28;1124;-71
2023/10/24 09:40:58;;;;;;;;;;;;;;;18.51;58.68;98487.59;10362048;28;1124;-72
2023/10/24 09:45:56;;;;;;;;;;;;;;;18.53;58.47;98480.41;10365994;28;984;-72
2023/10/24 09:50:51;;;;;;;;;;;;;;;18.51;58.31;98482.31;10365317;28;1886;-72
2023/10/24 09:55:50;;;;;;;;;;;;;;;18.50;58.45;98470.06;10365019;28;896;-72
2023/10/24 10:00:46;;;;;;;;;;;;;;;18.53;58.58;98469.88;10365947;28;825;-71
2023/10/24 10:05:42;;;;;;;;;;;;;;;18.58;58.36;98477.50;10365475;28;933;-72
2023/10/24 10:10:38;;;;;;;;;;;;;;;18.58;58.33;98482.75;10364760;28;1910;-71
2023/10/24 10:15:37;;;;;;;;;;;;;;;18.58;58.17;98469.56;10365476;28;954;-72
2023/10/24 10:20:33;;;;;;;;;;;;;;;18.59;58.24;98469.44;10372085;28;908;-71
2023/10/24 10:25:28;;;;;;;;;;;;;;;18.63;57.83;98454.28;10373000;28;786;-73
2023/10/24 10:30:24;;;;;;;;;;;;;;;18.63;58.02;98449.00;10372240;28;1914;-73
2023/10/24 10:35:20;;;;;;;;;;;;;;;18.64;58.13;98434.84;10372854;28;805;-69
2023/10/24 10:40:17;;;;;;;;;;;;;;;18.64;58.00;98426.91;10369231;28;1058;-72
2023/10/24 10:45:14;;;;;;;;;;;;;;;18.64;58.08;98423.44;10331774;28;841;-72
2023/10/24 10:50:09;;;;;;;;;;;;;;;18.61;58.13;98420.06;10330143;28;1897;-73
2023/10/24 10:55:05;;;;;;;;;;;;;;;18.63;58.14;98401.50;10330474;28;858;-72
2023/10/24 11:00:02;;;;;;;;;;;;;;;18.61;58.17;98403.38;10330576;28;937;-71
2023/10/24 11:04:58;;;;;;;;;;;;;;;18.62;58.11;98400.63;10330781;28;853;-75
2023/10/24 11:09:54;;;;;;;;;;;;;;;18.60;58.10;98399.03;10329992;28;1886;-72
2023/10/24 11:14:50;;;;;;;;;;;;;;;18.61;57.91;98388.38;10329879;28;940;-72
2023/10/24 11:19:46;;;;;;;;;;;;;;;18.64;57.97;98387.34;10329405;28;762;-71
2023/10/24 11:24:42;;;;;;;;;;;;;;;18.65;57.90;98396.09;10329727;28;928;-75
2023/10/24 11:29:37;;;;;;;;;;;;;;;18.62;57.83;98389.22;10329529;28;1905;-70
2023/10/24 11:34:33;;;;;;;;;;;;;;;18.60;57.92;98396.41;10328803;28;869;-71
2023/10/24 11:39:30;;;;;;;;;;;;;;;18.61;57.79;98387.53;10347656;28;1029;-72
2023/10/24 11:44:26;;;;;;;;;;;;;;;18.64;57.73;98389.97;10334856;28;1014;-72
2023/10/24 11:49:22;;;;;;;;;;;;;;;18.66;57.59;98381.97;10328345;28;1902;-71
2023/10/24 11:54:18;;;;;;;;;;;;;;;18.64;57.66;98360.09;10328314;28;759;-71
2023/10/24 11:59:13;;;;;;;;;;;;;;;18.65;57.71;98359.13;10327287;28;910;-70
2023/10/24 12:04:09;;;;;;;;;;;;;;;18.66;57.81;98352.94;10328760;28;869;-72
2023/10/24 12:09:05;;;;;;;;;;;;;;;18.56;57.94;98350.06;10327417;28;894;-73
2023/10/24 12:14:01;;;;;;;;;;;;;;;18.48;58.11;98345.31;10327088;28;1957;-72
2023/10/24 12:18:57;;;;;;;;;;;;;;;18.46;57.96;98349.84;10327316;28;802;-73
2023/10/24 12:23:53;;;;;;;;;;;;;;;18.44;58.13;98354.38;10327333;28;889;-72
2023/10/24 12:28:49;;;;;;;;;;;;;;;18.43;57.99;98338.66;10326772;28;968;-73
2023/10/24 12:33:45;;;;;;;;;;;;;;;18.42;57.84;98340.47;10326834;28;1910;-73
2023/10/24 12:38:41;;;;;;;;;;;;;;;18.42;58.01;98339.59;10325697;28;1082;-72
2023/10/24 12:43:36;;;;;;;;;;;;;;;18.40;57.79;98342.38;10325827;28;773;-72
2023/10/24 12:48:32;;;;;;;;;;;;;;;18.38;57.74;98354.81;10326427;28;861;-72
2023/10/24 12:53:28;;;;;;;;;;;;;;;18.36;57.82;98351.41;10325646;28;1953;-73
2023/10/24 12:58:24;;;;;;;;;;;;;;;18.36;57.80;98356.69;10325766;28;1097;-72
2023/10/24 13:03:20;;;;;;;;;;;;;;;18.35;57.93;98355.03;10325377;28;774;-72
2023/10/24 13:08:16;;;;;;;;;;;;;;;18.36;57.72;98362.81;10325217;28;781;-72
2023/10/24 13:13:12;;;;;;;;;;;;;;;18.37;57.80;98374.22;10324820;28;1961;-73
2023/10/24 13:18:08;;;;;;;;;;;;;;;18.34;57.53;98379.72;10325200;28;820;-72
2023/10/24 13:23:04;;;;;;;;;;;;;;;18.32;57.84;98382.44;10324794;28;870;-72
2023/10/24 13:27:59;;;;;;;;;;;;;;;18.35;57.53;98389.31;10324066;28;1070;-72
2023/10/24 13:32:55;;;;;;;;;;;;;;;18.35;57.61;98387.50;10323739;28;1979;-72
2023/10/24 13:37:51;;;;;;;;;;;;;;;18.35;57.53;98399.88;10330253;28;1243;-72
2023/10/24 13:42:47;;;;;;;;;;;;;;;18.34;57.78;98391.09;10365498;28;875;-72
2023/10/24 13:47:43;;;;;;;;;;;;;;;18.33;57.86;98394.69;10366399;28;799;-73
2023/10/24 13:52:39;;;;;;;;;;;;;;;18.34;57.65;98398.19;10367683;28;1910;-72
2023/10/24 13:57:35;;;;;;;;;;;;;;;18.34;57.64;98406.09;10375002;28;854;-73
2023/10/24 14:02:30;;;;;;;;;;;;;;;18.33;57.71;98402.59;10373930;28;964;-73
2023/10/24 14:07:26;;;;;;;;;;;;;;;18.33;57.75;98404.38;10373899;28;758;-72
2023/10/24 14:12:22;;;;;;;;;;;;;;;18.31;57.91;98419.47;10372843;28;1901;-73
2023/10/24 14:17:18;;;;;;;;;;;;;;;18.30;57.63;98401.97;10372636;28;905;-73
2023/10/24 14:22:14;;;;;;;;;;;;;;;18.31;58.01;98383.41;10372611;28;916;-72
2023/10/24 14:27:10;;;;;;;;;;;;;;;18.34;57.89;98369.16;10373232;28;782;-74
2023/10/24 14:32:06;;;;;;;;;;;;;;;18.33;57.89;98363.03;10372443;28;1927;-75
2023/10/24 14:37:02;;;;;;;;;;;;;;;18.32;57.91;98357.88;10372288;28;830;-75
2023/10/24 14:41:59;;;;;;;;;;;;;;;18.36;57.87;98385.72;10372395;28;969;-74
2023/10/24 14:46:55;;;;;;;;;;;;;;;18.43;57.55;98375.59;10372430;28;868;-74
2023/10/24 14:51:51;;;;;;;;;;;;;;;18.93;56.15;98371.31;10372443;28;1894;-74
2023/10/24 14:56:47;;;;;;;;;;;;;;;19.16;55.66;98367.06;10370974;28;908;-73
2023/10/24 15:01:43;;;;;;;;;;;;;;;19.31;55.54;98371.25;10370980;28;793;-74
2023/10/24 15:06:39;;;;;;;;;;;;;;;19.41;55.37;98380.22;10371581;28;857;-74
2023/10/24 15:11:35;;;;;;;;;;;;;;;19.49;55.23;98387.56;10370953;28;1894;-74
2023/10/24 15:16:30;;;;;;;;;;;;;;;19.49;55.58;98380.50;10353671;28;731;-75
2023/10/24 15:21:26;;;;;;;;;;;;;;;19.30;55.83;98380.13;10369896;28;896;-74
2023/10/24 15:26:22;;;;;;;;;;;;;;;19.22;56.07;98374.53;10370228;28;834;-76
2023/10/24 15:31:18;;;;;;;;;;;;;;;18.98;56.71;98379.75;10369603;28;1902;-74
2023/10/24 15:36:14;;;;;;;;;;;;;;;18.88;56.83;98382.19;10369243;28;960;-74
2023/10/24 15:41:10;;;;;;;;;;;;;;;18.84;57.02;98383.38;10370220;28;1183;-75
2023/10/24 15:46:06;;;;;;;;;;;;;;;18.80;57.08;98384.50;10370094;28;798;-75
2023/10/24 15:51:02;;;;;;;;;;;;;;;18.76;57.02;98377.78;10369809;28;1965;-74
2023/10/24 15:55:58;;;;;;;;;;;;;;;18.71;57.21;98385.97;10369262;28;802;-74
2023/10/24 16:00:53;;;;;;;;;;;;;;;18.68;57.15;98394.09;10368805;28;859;-74
2023/10/24 16:05:49;;;;;;;;;;;;;;;18.68;57.11;98395.88;10368142;28;865;-74
2023/10/24 16:10:47;;;;;;;;;;;;;;;18.67;57.31;98391.56;10368760;28;1874;-75
2023/10/24 16:15:43;;;;;;;;;;;;;;;18.66;57.22;98385.44;10368422;28;807;-74
2023/10/24 16:20:39;;;;;;;;;;;;;;;18.61;57.26;98377.81;10368337;28;858;-71
2023/10/24 16:25:35;;;;;;;;;;;;;;;18.60;57.21;98370.88;10368252;28;881;-74
2023/10/24 16:30:31;;;;;;;;;;;;;;;18.61;57.47;98380.47;10368249;28;1983;-73
2023/10/24 16:35:27;;;;;;;;;;;;;;;18.61;57.18;98398.94;10367331;28;854;-73
2023/10/24 16:40:24;;;;;;;;;;;;;;;18.60;57.52;98409.59;10367111;28;920;-73
2023/10/24 16:45:19;;;;;;;;;;;;;;;18.58;57.43;98414.16;10368193;28;795;-72
2023/10/24 16:50:15;;;;;;;;;;;;;;;18.57;57.37;98418.56;10367373;28;1947;-76
2023/10/24 16:55:11;;;;;;;;;;;;;;;18.57;57.57;98415.91;10367052;28;847;-72
2023/10/24 17:00:09;;;;;;;;;;;;;;;18.58;57.39;98412.34;10366718;28;818;-70
2023/10/24 17:05:05;;;;;;;;;;;;;;;18.57;57.40;98423.84;10367229;28;998;-72
2023/10/24 17:10:01;;;;;;;;;;;;;;;18.55;57.62;98431.03;10366962;28;1894;-73
2023/10/24 17:14:58;;;;;;;;;;;;;;;18.54;57.47;98429.31;10366008;28;889;-73
2023/10/24 17:19:54;;;;;;;;;;;;;;;18.56;57.50;98437.16;10366034;28;929;-73
2023/10/24 17:24:51;;;;;;;;;;;;;;;18.57;57.46;98423.00;10348303;28;860;-72
2023/10/24 17:29:47;;;;;;;;;;;;;;;18.54;57.35;98424.03;10365021;28;1902;-72
2023/10/24 17:34:43;;;;;;;;;;;;;;;18.52;57.40;98420.69;10366026;28;762;-73
2023/10/24 17:39:38;;;;;;;;;;;;;;;18.53;57.59;98430.28;10365366;28;1149;-73
2023/10/24 17:44:35;;;;;;;;;;;;;;;18.54;57.53;98423.22;10365971;28;830;-73
2023/10/24 17:49:30;;;;;;;;;;;;;;;18.55;57.28;98431.03;10365041;28;1951;-72
2023/10/24 17:54:26;;;;;;;;;;;;;;;18.55;57.37;98433.69;10366019;28;920;-72
2023/10/24 17:59:23;;;;;;;;;;;;;;;18.62;57.46;98428.81;10365206;28;777;-72
2023/10/24 18:04:19;;;;;;;;;;;;;;;18.76;57.74;98433.22;10364913;28;1069;-72
2023/10/24 18:09:15;;;;;;;;;;;;;;;18.79;57.79;98431.19;10365062;28;881;-73
2023/10/24 18:14:11;;;;;;;;;;;;;;;18.81;57.96;98433.72;10365287;28;1893;-72
2023/10/24 18:19:07;;;;;;;;;;;;;;;18.80;57.90;98434.66;10365109;28;878;-72
2023/10/24 18:24:04;;;;;;;;;;;;;;;18.78;58.10;98431.28;10363867;28;1001;-73
2023/10/24 18:29:01;;;;;;;;;;;;;;;18.82;57.93;98427.50;10364148;28;958;-74
2023/10/24 18:33:57;;;;;;;;;;;;;;;18.87;58.08;98420.09;10364544;28;2093;-73
2023/10/24 18:38:53;;;;;;;;;;;;;;;18.89;58.12;98422.63;10366855;28;885;-73
2023/10/24 18:43:49;;;;;;;;;;;;;;;18.87;58.11;98417.47;10372294;28;969;-73
2023/10/24 18:48:45;;;;;;;;;;;;;;;18.86;58.17;98414.91;10371131;28;1142;-74
2023/10/24 18:53:41;;;;;;;;;;;;;;;18.89;58.08;98415.56;10371762;28;1890;-74
2023/10/24 18:58:37;;;;;;;;;;;;;;;18.93;57.95;98414.41;10371323;28;860;-74
2023/10/24 19:03:34;;;;;;;;;;;;;;;18.90;58.02;98414.63;10371501;28;766;-73
2023/10/24 19:08:30;;;;;;;;;;;;;;;18.90;58.09;98414.63;10369897;28;1099;-72
2023/10/24 19:13:27;;;;;;;;;;;;;;;18.90;58.13;98413.78;10370127;28;1967;-73
2023/10/24 19:18:22;;;;;;;;;;;19.40;64.40;;;18.96;58.18;98408.91;10369894;28;934;-75
2023/10/24 19:23:18;;;;;;;;;;;19.50;64.30;;;19.36;57.18;98416.69;10370859;28;981;-74
2023/10/24 19:28:13;;;;;;;;;;;19.50;64.30;;;19.09;57.65;98408.88;10370122;28;759;-71
2023/10/24 19:33:09;;;;;;;;;;;;;;;19.05;57.95;98407.44;10370599;28;1902;-73
2023/10/24 19:38:05;;;;;;;;;;;;;;;18.97;57.95;98400.03;10369264;28;1310;-73
2023/10/24 19:43:01;;;;;;;;;;;;;;;18.99;57.97;98414.00;10369870;28;818;-74
2023/10/24 19:47:58;;;;;;;;;;;;;;;18.97;58.23;98413.25;10370590;28;849;-80
2023/10/24 19:52:54;;;;;;;;;;;;;;;18.92;58.20;98410.06;10371011;28;1902;-70
2023/10/24 19:57:50;;;;;;;;;;;;;;;18.85;58.33;98422.00;10369045;28;923;-80
2023/10/24 20:02:46;;;;;;;;;;;;;;;18.74;58.58;98416.59;10370041;28;877;-79
2023/10/24 20:07:42;;;;;;;;;;;;;;;18.68;58.53;98430.19;10369279;28;810;-83
2023/10/24 20:12:38;;;;;;;;;;;;;;;18.64;58.72;98434.84;10369610;28;1894;-83
2023/10/24 20:17:34;;;;;;;;;;;;;;;18.60;58.86;98434.22;10368265;28;870;-85
2023/10/24 20:22:31;;;;;;;;;;;;;;;18.56;58.82;98439.78;10368682;28;905;-90
2023/10/24 20:27:27;;;;;;;;;;;;;;;18.52;58.65;98433.88;10368475;28;865;-90
2023/10/24 20:32:23;;;;;;;;;;;;;;;18.51;58.73;98428.69;10368052;28;1913;-89
2023/10/24 20:37:19;;;;;;;;;;;;;;;18.47;58.52;98425.44;10368165;28;817;-89
2023/10/24 20:42:19;;;;;;;;;;;;;;;18.45;58.50;98422.03;10368222;28;888;-88
2023/10/24 20:47:15;;;;;;;;;;;;;;;18.44;58.31;98422.13;10367910;28;790;-88
2023/10/24 20:52:11;;;;;;;;;;;;;;;18.40;58.14;98426.78;10366954;28;1902;-88
2023/10/24 20:57:06;;;;;;;;;;;;;;;18.34;58.15;98422.75;10368155;28;869;-88
2023/10/24 21:02:06;;;;;;;;;;;;;;;18.32;58.38;98421.19;10367787;28;854;-88
2023/10/24 21:07:02;;;;;;;;;;;;;;;18.33;58.27;98428.13;10367259;28;929;-88
2023/10/24 21:11:58;;;;;;;;;;;;;;;18.28;58.49;98430.22;10367867;28;1914;-88
2023/10/24 21:16:54;;;;;;;;;;;;;;;18.24;58.78;98426.13;10366867;28;774;-88
2023/10/24 21:21:50;;;;;;;;;;;;;;;18.19;58.92;98423.78;10366105;28;1301;-88
2023/10/24 21:26:46;;;;;;;;;;;;;;;18.16;58.93;98424.81;10367232;28;858;-82
2023/10/24 21:31:45;;;;;;;;;;;;;;;18.15;58.81;98423.13;10367185;28;1905;-76
2023/10/24 21:36:41;;;;;;;;;;;;;;;18.12;59.06;98423.31;10366328;28;893;-75
2023/10/24 21:41:37;;;;;;;;;;;;;;;18.09;59.13;98427.97;10366866;28;793;-75
2023/10/24 21:46:33;;;;;;;;;;;;;;;18.06;59.11;98429.00;10366148;28;913;-75
2023/10/24 21:51:29;;;;;;;;;;;;;;;18.02;59.23;98422.22;10365948;28;1893;-75
2023/10/24 21:56:24;;;;;;;;;;;;;;;18.01;59.10;98422.34;10366017;28;810;-75
2023/10/24 22:01:20;;;;;;;;;;;;;;;17.99;59.05;98426.88;10365734;28;962;-75
2023/10/24 22:06:16;;;;;;;;;;;;;;;17.96;59.26;98423.47;10365749;28;822;-75
2023/10/24 22:11:13;;;;;;;;;;;;;;;17.94;59.13;98421.88;10365739;28;1897;-75
2023/10/24 22:16:09;;;;;;;;;;;;;;;17.93;58.96;98428.13;10372409;28;889;-75
2023/10/24 22:21:05;;;;;;;;;;;;;;;17.88;59.04;98425.78;10373602;28;811;-75
2023/10/24 22:26:00;;;;;;;;;;;;;;;17.87;59.12;98423.25;10373362;28;809;-75
2023/10/24 22:30:56;;;;;;;;;;;;;;;17.86;59.03;98416.28;10374011;28;1984;-75
2023/10/24 22:35:52;;;;;;;;;;;;;;;17.84;59.09;98426.06;10373561;28;841;-75
2023/10/24 22:40:48;;;;;;;;;;;;;;;17.82;59.04;98420.06;10372142;28;857;-75
2023/10/24 22:45:44;;;;;;;;;;;;;;;17.80;59.38;98421.94;10373192;28;880;-75
2023/10/24 22:50:40;;;;;;;;;;;;;;;17.79;59.24;98425.47;10372355;28;1893;-75
2023/10/24 22:55:36;;;;;;;;;;;;;;;17.78;59.15;98429.06;10371625;28;833;-75
2023/10/24 23:00:32;;;;;;;;;;;;;;;17.76;59.13;98434.41;10371908;28;941;-75
2023/10/24 23:05:28;;;;;;;;;;;;;;;17.75;59.17;98435.38;10371829;28;952;-75
2023/10/24 23:10:23;;;;;;;;;;;;;;;17.72;59.26;98427.69;10372112;28;1897;-75
2023/10/24 23:15:19;;;;;;;;;;;;;;;17.70;59.32;98430.41;10371424;28;790;-75
2023/10/24 23:20:15;;;;;;;;;;;;;;;17.70;59.18;98435.66;10372426;28;923;-75
2023/10/24 23:25:11;;;;;;;;;;;;;;;17.67;59.25;98425.31;10371485;28;825;-75
2023/10/24 23:30:07;;;;;;;;;;;;;;;17.66;59.22;98425.44;10370873;28;1914;-75
2023/10/24 23:35:03;;;;;;;;;;;;;;;17.64;59.36;98433.44;10370607;28;781;-75
2023/10/24 23:39:59;;;;;;;;;;;;;;;17.64;59.20;98433.44;10371030;28;857;-75
2023/10/24 23:44:55;;;;;;;;;;;;;;;17.62;59.37;98424.78;10370249;28;933;-75
2023/10/24 23:49:50;;;;;;;;;;;;;;;17.60;59.22;98426.66;10369965;28;1945;-75
2023/10/24 23:54:46;;;;;;;;;;;;;;;17.60;59.39;98425.81;10369850;28;809;-75
2023/10/24 23:59:42;;;;;;;;;;;;;;;17.58;59.22;98414.50;10352745;28;800;-75
